Aurora, Nebraska
Current Conditions -  °F | °C
As of 5:55 PM on Friday 31 Oct 2014 (Local Time) from KAUH Reporting Station
Clear Clear  
Wind Chill: 37°   Ceiling: Unl
Heat Index: 41°   Visibility: 10mi
Dew Point: 11°   Wind: 6mph
Humidity: 29%   Direction: 130°SE
Pressure: 30.44"   Gusts: NA
Location:  40.87°N, 98°W
Report Text: KAUH 312255Z AUTO 13005KT 10SM CLR 05/M12 A3044 RMK AO2 T00511119
Loading
Personal Weather Stations






























Interactive Weather Map
Tropical Storm Tracking
New forecast layout! Learn more

10-Day Weather Forecast

Advertisements
Track Severe Weather on mobile